createdAt,value
2023-05-14T00:00:40.926Z,35.81
2023-05-14T00:03:07.639Z,36.04
2023-05-14T00:05:34.331Z,36.03
2023-05-14T00:08:00.959Z,36.05
2023-05-14T00:10:27.873Z,36.05
2023-05-14T00:12:54.411Z,36.01
2023-05-14T00:15:20.937Z,35.86
2023-05-14T00:17:47.523Z,36.00
2023-05-14T00:20:14.118Z,35.43
2023-05-14T00:22:40.856Z,35.77
2023-05-14T00:25:08.394Z,35.87
2023-05-14T00:27:36.059Z,35.79
2023-05-14T00:30:02.809Z,35.83
2023-05-14T00:32:29.336Z,35.86
2023-05-14T00:34:55.849Z,35.97
2023-05-14T00:37:22.370Z,36.11
2023-05-14T00:39:48.868Z,36.14
2023-05-14T00:42:15.423Z,36.20
2023-05-14T00:44:41.918Z,36.23
2023-05-14T00:47:08.754Z,36.28
2023-05-14T00:49:35.571Z,36.26
2023-05-14T00:52:02.283Z,36.12
2023-05-14T00:54:29.658Z,36.11
2023-05-14T00:56:56.233Z,36.24
2023-05-14T00:59:22.852Z,36.25
2023-05-14T01:01:49.470Z,36.26
2023-05-14T01:04:16.242Z,36.46
2023-05-14T01:07:08.857Z,36.23
2023-05-14T01:09:56.274Z,36.33
2023-05-14T01:13:00.620Z,36.24
2023-05-14T01:15:31.806Z,36.35
2023-05-14T01:18:03.912Z,36.64
2023-05-14T01:20:30.559Z,36.94
2023-05-14T01:22:57.402Z,36.88
2023-05-14T01:25:23.924Z,36.95
2023-05-14T01:28:12.124Z,37.07
2023-05-14T01:30:57.982Z,37.02
2023-05-14T01:33:26.202Z,37.28
2023-05-14T01:35:53.752Z,37.35
2023-05-14T01:38:20.764Z,37.37
2023-05-14T01:40:48.142Z,37.38
2023-05-14T01:43:15.722Z,37.34
2023-05-14T01:45:42.613Z,37.34
2023-05-14T01:48:09.372Z,37.18
2023-05-14T01:50:35.963Z,37.17
2023-05-14T01:53:02.952Z,36.99
2023-05-14T01:55:29.460Z,37.15
2023-05-14T01:57:56.046Z,37.28
2023-05-14T02:00:24.319Z,37.18
2023-05-14T02:02:51.246Z,37.39
2023-05-14T02:05:17.853Z,37.54
2023-05-14T02:07:44.362Z,37.50
2023-05-14T02:10:11.329Z,37.58
2023-05-14T02:12:38.009Z,37.77
2023-05-14T02:15:05.023Z,37.89
2023-05-14T02:17:32.246Z,37.95
2023-05-14T02:19:58.840Z,37.99
2023-05-14T02:22:25.402Z,37.85
2023-05-14T02:24:52.480Z,38.07
2023-05-14T02:27:19.027Z,38.05
2023-05-14T02:29:45.540Z,38.15
2023-05-14T02:32:12.064Z,38.20
2023-05-14T02:34:39.096Z,38.17
2023-05-14T02:37:05.642Z,38.26
2023-05-14T02:39:32.202Z,38.06
2023-05-14T02:41:58.705Z,38.07
2023-05-14T02:44:25.225Z,38.06
2023-05-14T02:46:51.778Z,38.26
2023-05-14T02:49:18.357Z,37.85
2023-05-14T02:51:44.845Z,38.03
2023-05-14T02:54:11.461Z,37.81
2023-05-14T02:56:38.112Z,37.82
2023-05-14T02:59:04.635Z,37.64
2023-05-14T03:01:31.887Z,37.19
2023-05-14T03:03:59.204Z,37.50
2023-05-14T03:06:25.890Z,37.49
2023-05-14T03:08:52.514Z,37.47
2023-05-14T03:11:19.045Z,37.48
2023-05-14T03:13:45.588Z,37.53
2023-05-14T03:16:12.160Z,37.40
2023-05-14T03:18:38.667Z,36.89
2023-05-14T03:21:05.198Z,36.81
2023-05-14T03:23:34.873Z,36.75
2023-05-14T03:26:02.149Z,36.60
2023-05-14T03:28:28.666Z,36.07
2023-05-14T03:30:55.279Z,36.03
2023-05-14T03:33:22.682Z,35.85
2023-05-14T03:35:49.378Z,35.37
2023-05-14T03:38:15.889Z,35.13
2023-05-14T03:40:44.217Z,35.03
2023-05-14T03:43:11.337Z,34.48
2023-05-14T03:45:37.942Z,34.48
2023-05-14T03:48:04.804Z,34.20
2023-05-14T03:50:32.484Z,33.43
2023-05-14T03:52:59.011Z,33.71
2023-05-14T03:55:25.712Z,33.57
2023-05-14T03:57:52.279Z,33.21
2023-05-14T04:00:18.950Z,33.05
2023-05-14T04:02:45.658Z,33.13
2023-05-14T04:05:12.250Z,33.24
2023-05-14T04:07:38.768Z,32.92
2023-05-14T04:10:05.775Z,32.85
2023-05-14T04:12:34.720Z,32.73
2023-05-14T04:15:01.486Z,32.53
2023-05-14T04:17:28.054Z,32.57
2023-05-14T04:19:54.554Z,32.90
2023-05-14T04:22:21.107Z,32.75
2023-05-14T04:24:47.604Z,32.72
2023-05-14T04:27:23.836Z,32.52
2023-05-14T04:29:50.545Z,32.29
2023-05-14T04:32:17.769Z,32.49
2023-05-14T04:34:44.315Z,32.41
2023-05-14T04:37:10.821Z,32.49
2023-05-14T04:39:38.389Z,32.53
2023-05-14T04:42:05.490Z,32.38
2023-05-14T04:44:31.996Z,32.38
2023-05-14T04:46:58.509Z,32.32
2023-05-14T04:49:25.011Z,32.17
2023-05-14T04:51:51.537Z,32.36
2023-05-14T04:54:18.083Z,32.16
2023-05-14T04:56:44.820Z,32.06
2023-05-14T04:59:11.336Z,31.93
2023-05-14T05:01:37.881Z,31.91
2023-05-14T05:04:04.525Z,31.75
2023-05-14T05:06:31.615Z,31.84
2023-05-14T05:08:59.520Z,31.53
2023-05-14T05:11:27.077Z,31.42
2023-05-14T05:13:53.614Z,31.03
2023-05-14T05:16:20.155Z,31.07
2023-05-14T05:18:46.715Z,30.71
2023-05-14T05:21:13.264Z,30.54
2023-05-14T05:23:39.820Z,30.55
2023-05-14T05:26:06.322Z,30.37
2023-05-14T05:28:32.852Z,30.56
2023-05-14T05:30:59.381Z,30.30
2023-05-14T05:33:26.037Z,30.15
2023-05-14T05:35:52.550Z,29.78
2023-05-14T05:38:19.096Z,29.90
2023-05-14T05:40:45.593Z,29.42
2023-05-14T05:43:13.881Z,29.42
2023-05-14T05:45:41.482Z,29.26
2023-05-14T05:48:08.053Z,29.51
2023-05-14T05:50:34.605Z,29.25
2023-05-14T05:53:01.184Z,29.43
2023-05-14T05:55:28.710Z,29.32
2023-05-14T05:57:55.313Z,29.07
2023-05-14T06:00:22.224Z,29.08
2023-05-14T06:02:49.138Z,29.20
2023-05-14T06:05:15.833Z,28.79
2023-05-14T06:07:42.409Z,28.58
2023-05-14T06:10:09.026Z,28.27
2023-05-14T06:12:35.544Z,28.48
2023-05-14T06:15:02.061Z,27.90
2023-05-14T06:17:28.593Z,27.59
2023-05-14T06:19:55.140Z,27.67
2023-05-14T06:22:21.634Z,27.86
2023-05-14T06:24:49.255Z,27.75
2023-05-14T06:27:15.776Z,27.10
2023-05-14T06:29:42.287Z,27.28
2023-05-14T06:32:09.038Z,27.39
2023-05-14T06:34:35.542Z,26.96
2023-05-14T06:37:04.212Z,26.76
2023-05-14T06:39:31.026Z,26.58
2023-05-14T06:41:57.566Z,26.87
2023-05-14T06:44:24.232Z,27.36
2023-05-14T06:46:50.697Z,27.31
2023-05-14T06:49:17.286Z,27.19
2023-05-14T06:51:43.831Z,27.03
2023-05-14T06:54:10.349Z,27.18
2023-05-14T06:56:36.899Z,26.92
2023-05-14T06:59:03.495Z,26.35
2023-05-14T07:01:30.625Z,26.51
2023-05-14T07:03:57.290Z,26.44
2023-05-14T07:06:23.995Z,26.47
2023-05-14T07:08:50.560Z,26.26
2023-05-14T07:11:17.124Z,25.93
2023-05-14T07:13:43.625Z,25.83
2023-05-14T07:16:10.335Z,25.87
2023-05-14T07:18:36.985Z,25.50
2023-05-14T07:21:06.488Z,25.51
2023-05-14T07:23:36.128Z,25.46
2023-05-14T07:26:03.331Z,25.09
2023-05-14T07:28:29.825Z,25.42
2023-05-14T07:30:56.350Z,25.82
2023-05-14T07:33:23.055Z,25.43
2023-05-14T07:35:49.627Z,25.32
2023-05-14T07:38:16.272Z,24.95
2023-05-14T07:40:43.488Z,24.46
2023-05-14T07:43:10.333Z,24.52
2023-05-14T07:45:37.933Z,24.57
2023-05-14T07:48:04.703Z,24.34
2023-05-14T07:50:31.404Z,23.73
2023-05-14T07:52:57.898Z,23.66
2023-05-14T07:55:24.589Z,22.77
2023-05-14T07:57:51.078Z,22.77
2023-05-14T08:00:18.057Z,22.63
2023-05-14T08:02:44.798Z,22.97
2023-05-14T08:05:11.486Z,22.84
2023-05-14T08:07:38.029Z,22.52
2023-05-14T08:10:04.809Z,22.10
2023-05-14T08:12:31.739Z,21.73
2023-05-14T08:14:58.252Z,21.67
2023-05-14T08:17:24.798Z,22.53
2023-05-14T08:19:51.351Z,21.70
2023-05-14T08:22:17.883Z,20.89
2023-05-14T08:24:44.421Z,20.87
2023-05-14T08:27:10.956Z,20.60
2023-05-14T08:29:37.489Z,20.47
2023-05-14T08:32:15.604Z,20.03
2023-05-14T08:34:48.953Z,19.97
2023-05-14T08:37:15.537Z,19.55
2023-05-14T08:39:42.017Z,19.77
2023-05-14T08:42:09.738Z,19.67
2023-05-14T08:44:42.709Z,19.89
2023-05-14T08:47:09.489Z,20.37
2023-05-14T08:49:41.612Z,20.11
2023-05-14T08:52:11.516Z,19.11
2023-05-14T08:54:38.481Z,19.70
2023-05-14T08:57:05.759Z,18.88
2023-05-14T08:59:32.332Z,18.89
2023-05-14T09:02:02.159Z,18.87
2023-05-14T09:04:29.660Z,18.71
2023-05-14T09:06:56.216Z,18.75
2023-05-14T09:09:23.245Z,19.06
2023-05-14T09:11:51.110Z,18.30
2023-05-14T09:14:17.852Z,18.40
2023-05-14T09:16:45.977Z,18.33
2023-05-14T09:19:13.724Z,19.53
2023-05-14T09:21:40.701Z,20.19
2023-05-14T09:24:07.635Z,20.30
2023-05-14T09:26:34.895Z,19.19
2023-05-14T09:29:02.757Z,18.24
2023-05-14T09:31:33.618Z,17.32
2023-05-14T09:34:00.684Z,16.94
2023-05-14T09:36:27.410Z,17.82
2023-05-14T09:38:56.783Z,17.02
2023-05-14T09:41:23.393Z,16.60
2023-05-14T09:43:51.471Z,16.39
2023-05-14T09:46:18.287Z,16.51
2023-05-14T09:48:46.033Z,17.73
2023-05-14T09:51:13.182Z,16.30
2023-05-14T09:53:41.296Z,16.52
2023-05-14T09:56:07.758Z,17.20
2023-05-14T09:58:34.342Z,16.83
2023-05-14T10:01:01.747Z,16.21
2023-05-14T10:03:30.029Z,16.63
2023-05-14T10:05:58.747Z,15.86
2023-05-14T10:08:28.101Z,16.15
2023-05-14T10:10:55.873Z,16.42
2023-05-14T10:13:24.488Z,16.29
2023-05-14T10:16:02.679Z,15.87
2023-05-14T10:18:31.375Z,16.24
2023-05-14T10:21:04.349Z,16.77
2023-05-14T10:23:31.168Z,17.05
2023-05-14T10:26:00.779Z,17.15
2023-05-14T10:28:27.940Z,17.54
2023-05-14T10:30:54.772Z,17.60
2023-05-14T10:33:21.306Z,17.73
2023-05-14T10:35:58.337Z,17.92
2023-05-14T10:38:29.735Z,17.84
2023-05-14T10:40:57.992Z,18.43
2023-05-14T10:43:27.900Z,18.37
2023-05-14T10:45:54.537Z,18.45
2023-05-14T10:48:21.419Z,18.68
2023-05-14T10:50:48.581Z,18.95
2023-05-14T10:53:15.667Z,19.21
2023-05-14T10:55:43.061Z,19.06
2023-05-14T10:58:11.078Z,19.18
2023-05-14T11:00:38.105Z,19.42
2023-05-14T11:03:09.173Z,19.38
2023-05-14T11:05:37.334Z,19.51
2023-05-14T11:08:06.313Z,19.21
2023-05-14T11:10:32.870Z,19.83
2023-05-14T11:12:59.541Z,19.60
2023-05-14T11:15:26.677Z,19.53
2023-05-14T11:17:53.801Z,19.58
2023-05-14T11:20:20.794Z,19.65
2023-05-14T11:22:48.939Z,19.54
2023-05-14T11:25:15.650Z,19.55
2023-05-14T11:27:46.793Z,19.66
2023-05-14T11:30:13.287Z,18.71
2023-05-14T11:32:40.840Z,19.25
2023-05-14T11:35:07.651Z,19.46
2023-05-14T11:37:34.157Z,19.67
2023-05-14T11:40:01.585Z,19.92
2023-05-14T11:42:28.218Z,19.41
2023-05-14T11:44:54.744Z,19.29
2023-05-14T11:47:21.866Z,19.95
2023-05-14T11:49:48.912Z,19.36
2023-05-14T11:52:16.626Z,19.20
2023-05-14T11:54:44.113Z,19.60
2023-05-14T11:57:15.703Z,19.46
2023-05-14T11:59:42.360Z,19.83
2023-05-14T12:02:12.041Z,19.73
2023-05-14T12:04:38.880Z,19.84
2023-05-14T12:07:13.089Z,20.01
2023-05-14T12:09:50.553Z,19.96
2023-05-14T12:12:22.033Z,19.84
2023-05-14T12:14:49.612Z,19.73
2023-05-14T12:17:16.977Z,19.73
2023-05-14T12:19:44.977Z,19.51
2023-05-14T12:22:12.708Z,19.57
2023-05-14T12:24:39.416Z,19.69
2023-05-14T12:27:07.057Z,19.80
2023-05-14T12:29:39.691Z,19.60
2023-05-14T12:32:10.002Z,20.17
2023-05-14T12:34:37.964Z,20.03
2023-05-14T12:37:05.593Z,19.83
2023-05-14T12:39:33.768Z,20.60
2023-05-14T12:42:00.446Z,19.81
2023-05-14T12:44:27.044Z,19.81
2023-05-14T12:46:53.783Z,19.84
2023-05-14T12:49:20.435Z,18.75
2023-05-14T12:51:47.029Z,19.10
2023-05-14T12:54:15.754Z,18.69
2023-05-14T12:56:42.589Z,18.63
2023-05-14T12:59:09.561Z,19.13
2023-05-14T13:01:37.672Z,18.56
2023-05-14T13:04:05.392Z,18.42
2023-05-14T13:06:32.345Z,19.57
2023-05-14T13:09:00.231Z,18.49
2023-05-14T13:11:29.512Z,19.37
2023-05-14T13:13:56.076Z,19.47
2023-05-14T13:16:22.710Z,19.20
2023-05-14T13:18:49.262Z,18.38
2023-05-14T13:21:15.773Z,18.95
2023-05-14T13:23:42.294Z,18.72
2023-05-14T13:26:08.837Z,18.92
2023-05-14T13:28:35.526Z,19.34
2023-05-14T13:31:06.080Z,18.70
2023-05-14T13:33:34.360Z,18.27
2023-05-14T13:36:00.871Z,18.43
2023-05-14T13:38:27.418Z,18.39
2023-05-14T13:40:54.363Z,18.66
2023-05-14T13:43:21.003Z,18.39
2023-05-14T13:45:47.672Z,18.61
2023-05-14T13:48:14.255Z,19.19
2023-05-14T13:50:40.822Z,19.10
2023-05-14T13:53:07.346Z,18.59
2023-05-14T13:55:33.933Z,18.49
2023-05-14T13:58:01.799Z,18.16
2023-05-14T14:00:28.270Z,18.27
2023-05-14T14:02:54.801Z,18.11
2023-05-14T14:05:21.536Z,18.19
2023-05-14T14:07:49.755Z,18.48
2023-05-14T14:10:17.015Z,18.55
2023-05-14T14:12:43.561Z,18.53
2023-05-14T14:15:10.686Z,18.77
2023-05-14T14:17:38.929Z,18.80
2023-05-14T14:20:06.552Z,18.53
2023-05-14T14:22:33.132Z,18.71
2023-05-14T14:24:59.718Z,19.00
2023-05-14T14:27:26.325Z,19.46
2023-05-14T14:29:53.060Z,19.27
2023-05-14T14:32:20.353Z,19.40
2023-05-14T14:34:46.844Z,19.67
2023-05-14T14:37:13.427Z,19.58
2023-05-14T14:39:40.331Z,19.45
2023-05-14T14:42:07.015Z,19.47
2023-05-14T14:44:33.575Z,19.15
2023-05-14T14:47:00.160Z,18.93
2023-05-14T14:49:27.743Z,19.10
2023-05-14T14:51:54.360Z,19.22
2023-05-14T14:54:20.929Z,19.13
2023-05-14T14:56:49.196Z,18.73
2023-05-14T14:59:15.825Z,18.76
2023-05-14T15:01:42.515Z,19.02
2023-05-14T15:04:09.073Z,18.95
2023-05-14T15:06:35.663Z,18.88
2023-05-14T15:09:02.458Z,18.79
2023-05-14T15:11:29.108Z,18.72
2023-05-14T15:13:55.612Z,19.42
2023-05-14T15:16:22.155Z,19.26
2023-05-14T15:18:48.697Z,18.36
2023-05-14T15:21:15.297Z,17.98
2023-05-14T15:23:41.806Z,18.02
2023-05-14T15:26:08.333Z,18.04
2023-05-14T15:28:34.843Z,17.52
2023-05-14T15:31:02.567Z,17.73
2023-05-14T15:33:29.090Z,17.68
2023-05-14T15:35:55.599Z,17.74
2023-05-14T15:38:22.087Z,17.81
2023-05-14T15:40:50.794Z,17.74
2023-05-14T15:43:17.339Z,17.47
2023-05-14T15:45:44.803Z,17.42
2023-05-14T15:48:11.379Z,18.00
2023-05-14T15:50:38.511Z,17.79
2023-05-14T15:53:05.045Z,18.10
2023-05-14T15:55:31.630Z,17.68
2023-05-14T15:57:58.122Z,18.16
2023-05-14T16:00:25.126Z,18.08
2023-05-14T16:02:52.266Z,18.31
2023-05-14T16:05:19.103Z,18.59
2023-05-14T16:07:45.583Z,18.75
2023-05-14T16:10:12.119Z,18.33
2023-05-14T16:12:38.633Z,18.45
2023-05-14T16:15:06.899Z,18.69
2023-05-14T16:17:34.334Z,18.73
2023-05-14T16:20:01.274Z,18.40
2023-05-14T16:22:29.297Z,18.69
2023-05-14T16:24:56.003Z,18.80
2023-05-14T16:27:22.540Z,18.54
2023-05-14T16:29:49.048Z,18.67
2023-05-14T16:32:15.587Z,18.88
2023-05-14T16:34:47.353Z,18.87
2023-05-14T16:37:15.035Z,18.89
2023-05-14T16:39:41.527Z,19.20
2023-05-14T16:42:08.032Z,19.57
2023-05-14T16:44:34.757Z,19.30
2023-05-14T16:47:01.468Z,19.04
2023-05-14T16:49:27.969Z,19.44
2023-05-14T16:51:54.481Z,19.48
2023-05-14T16:54:21.091Z,19.50
2023-05-14T16:56:48.303Z,19.55
2023-05-14T16:59:15.748Z,19.48
2023-05-14T17:01:42.939Z,19.62
2023-05-14T17:04:10.131Z,20.10
2023-05-14T17:06:36.956Z,19.96
2023-05-14T17:09:03.731Z,19.90
2023-05-14T17:11:30.273Z,19.85
2023-05-14T17:13:57.293Z,20.00
2023-05-14T17:16:24.212Z,19.91
2023-05-14T17:18:50.979Z,19.70
2023-05-14T17:21:17.521Z,20.12
2023-05-14T17:23:44.028Z,19.93
2023-05-14T17:26:12.058Z,19.84
2023-05-14T17:28:38.590Z,19.84
2023-05-14T17:31:05.113Z,20.08
2023-05-14T17:33:31.702Z,19.97
2023-05-14T17:35:58.539Z,20.41
2023-05-14T17:38:25.396Z,20.43
2023-05-14T17:40:51.865Z,20.25
2023-05-14T17:43:18.757Z,20.49
2023-05-14T17:45:53.814Z,20.65
2023-05-14T17:48:22.084Z,21.00
2023-05-14T17:50:48.633Z,20.83
2023-05-14T17:53:15.167Z,21.05
2023-05-14T17:55:43.618Z,21.09
2023-05-14T17:58:15.234Z,20.73
2023-05-14T18:00:42.023Z,21.30
2023-05-14T18:03:08.718Z,21.30
2023-05-14T18:05:35.289Z,21.00
2023-05-14T18:08:01.951Z,20.95
2023-05-14T18:10:29.650Z,21.07
2023-05-14T18:12:56.652Z,21.62
2023-05-14T18:15:25.430Z,21.19
2023-05-14T18:17:52.625Z,21.09
2023-05-14T18:20:19.431Z,21.39
2023-05-14T18:22:45.975Z,21.51
2023-05-14T18:25:13.679Z,21.18
2023-05-14T18:27:44.506Z,21.60
2023-05-14T18:30:12.113Z,20.63
2023-05-14T18:32:38.810Z,21.32
2023-05-14T18:35:07.864Z,21.54
2023-05-14T18:37:35.288Z,21.37
2023-05-14T18:40:07.125Z,21.62
2023-05-14T18:42:34.183Z,21.74
2023-05-14T18:45:01.418Z,21.63
2023-05-14T18:47:27.956Z,21.58
2023-05-14T18:49:55.813Z,22.08
2023-05-14T18:52:22.871Z,21.88
2023-05-14T18:54:50.820Z,21.92
2023-05-14T18:57:17.427Z,22.16
2023-05-14T18:59:43.966Z,22.18
2023-05-14T19:02:10.859Z,22.49
2023-05-14T19:04:50.740Z,22.28
2023-05-14T19:07:18.975Z,22.45
2023-05-14T19:09:45.564Z,22.17
2023-05-14T19:12:12.493Z,22.56
2023-05-14T19:14:39.205Z,22.71
2023-05-14T19:17:05.850Z,22.63
2023-05-14T19:19:32.643Z,22.98
2023-05-14T19:21:59.196Z,23.08
2023-05-14T19:24:25.853Z,23.39
2023-05-14T19:26:52.486Z,23.55
2023-05-14T19:29:19.034Z,23.33
2023-05-14T19:31:45.579Z,23.59
2023-05-14T19:34:12.142Z,23.84
2023-05-14T19:36:38.671Z,24.04
2023-05-14T19:39:05.221Z,24.13
2023-05-14T19:41:31.725Z,24.18
2023-05-14T19:43:58.252Z,24.51
2023-05-14T19:46:24.822Z,24.69
2023-05-14T19:48:51.387Z,24.90
2023-05-14T19:51:18.029Z,25.01
2023-05-14T19:53:45.160Z,25.38
2023-05-14T19:56:11.760Z,25.37
2023-05-14T19:58:38.248Z,25.75
2023-05-14T20:01:04.889Z,25.98
2023-05-14T20:03:32.197Z,26.19
2023-05-14T20:05:58.966Z,26.46
2023-05-14T20:08:25.462Z,26.91
2023-05-14T20:10:52.065Z,27.43
2023-05-14T20:13:18.581Z,27.29
2023-05-14T20:15:45.263Z,27.71
2023-05-14T20:18:11.810Z,27.93
2023-05-14T20:20:39.378Z,28.08
2023-05-14T20:23:06.165Z,28.33
2023-05-14T20:25:33.235Z,28.58
2023-05-14T20:28:02.781Z,28.61
2023-05-14T20:30:29.361Z,28.75
2023-05-14T20:32:56.113Z,28.76
2023-05-14T20:35:23.244Z,28.98
2023-05-14T20:37:50.120Z,29.09
2023-05-14T20:40:16.707Z,29.31
2023-05-14T20:42:43.352Z,29.43
2023-05-14T20:45:10.421Z,29.19
2023-05-14T20:47:37.010Z,29.56
2023-05-14T20:50:04.672Z,29.57
2023-05-14T20:52:31.335Z,29.46
2023-05-14T20:55:00.110Z,29.60
2023-05-14T20:57:28.300Z,29.67
2023-05-14T20:59:54.822Z,29.97
2023-05-14T21:02:21.526Z,30.29
2023-05-14T21:04:48.217Z,30.45
2023-05-14T21:07:14.831Z,30.45
2023-05-14T21:09:41.430Z,30.46
2023-05-14T21:12:08.301Z,30.65
2023-05-14T21:14:34.815Z,30.85
2023-05-14T21:17:01.370Z,30.73
2023-05-14T21:19:27.865Z,30.92
2023-05-14T21:21:54.404Z,30.77
2023-05-14T21:24:20.872Z,31.09
2023-05-14T21:26:47.452Z,30.97
2023-05-14T21:29:13.938Z,31.04
2023-05-14T21:31:40.857Z,31.11
2023-05-14T21:34:07.429Z,31.00
2023-05-14T21:36:34.031Z,31.02
2023-05-14T21:39:00.558Z,31.21
2023-05-14T21:41:27.081Z,31.32
2023-05-14T21:43:53.552Z,31.61
2023-05-14T21:46:20.099Z,31.35
2023-05-14T21:48:46.747Z,31.45
2023-05-14T21:51:13.389Z,31.38
2023-05-14T21:53:39.894Z,31.93
2023-05-14T21:56:07.098Z,31.86
2023-05-14T21:58:33.826Z,31.91
2023-05-14T22:01:00.371Z,32.05
2023-05-14T22:03:26.935Z,32.20
2023-05-14T22:05:53.504Z,32.15
2023-05-14T22:08:20.097Z,32.21
2023-05-14T22:10:47.112Z,32.49
2023-05-14T22:13:13.973Z,32.72
2023-05-14T22:15:40.809Z,32.76
2023-05-14T22:18:07.405Z,33.12
2023-05-14T22:20:33.951Z,32.94
2023-05-14T22:23:00.560Z,33.08
2023-05-14T22:25:27.366Z,32.65
2023-05-14T22:27:54.066Z,33.35
2023-05-14T22:30:21.111Z,33.38
2023-05-14T22:32:47.898Z,33.56
2023-05-14T22:35:14.477Z,33.38
2023-05-14T22:37:40.997Z,33.65
2023-05-14T22:40:08.809Z,33.62
2023-05-14T22:42:35.400Z,33.82
2023-05-14T22:45:01.924Z,33.82
2023-05-14T22:47:28.482Z,34.02
2023-05-14T22:49:55.003Z,34.28
2023-05-14T22:52:21.526Z,34.28
2023-05-14T22:54:50.912Z,34.48
2023-05-14T22:57:17.799Z,34.39
2023-05-14T22:59:44.461Z,34.51
2023-05-14T23:02:11.064Z,34.24
2023-05-14T23:04:37.814Z,34.39
2023-05-14T23:07:04.523Z,34.52
2023-05-14T23:09:31.086Z,34.54
2023-05-14T23:11:57.614Z,34.40
2023-05-14T23:14:24.179Z,34.27
2023-05-14T23:16:50.710Z,34.82
2023-05-14T23:19:17.351Z,34.86
2023-05-14T23:21:43.888Z,34.80
2023-05-14T23:24:10.401Z,35.02
2023-05-14T23:26:36.869Z,34.85
2023-05-14T23:29:03.383Z,35.05
2023-05-14T23:31:29.961Z,34.91
2023-05-14T23:33:57.051Z,34.95
2023-05-14T23:36:23.581Z,35.41
2023-05-14T23:38:50.314Z,35.21
2023-05-14T23:41:16.829Z,35.35
2023-05-14T23:43:43.331Z,35.29
2023-05-14T23:46:09.868Z,35.46
2023-05-14T23:48:36.504Z,35.37
2023-05-14T23:51:03.111Z,35.68
2023-05-14T23:53:29.654Z,35.65
2023-05-14T23:55:56.512Z,35.70
2023-05-14T23:58:23.054Z,35.84
